sensor_id;sensor_type;location;lat;lon;timestamp;temperature;humidity
11214;DHT22;5664;48.606;13.456;2023-02-02T00:01:46;17.70;91.30
11214;DHT22;5664;48.606;13.456;2023-02-02T00:04:18;17.70;91.30
11214;DHT22;5664;48.606;13.456;2023-02-02T00:06:44;17.80;91.40
11214;DHT22;5664;48.606;13.456;2023-02-02T00:09:13;18.10;91.90
11214;DHT22;5664;48.606;13.456;2023-02-02T00:11:39;17.90;91.80
11214;DHT22;5664;48.606;13.456;2023-02-02T00:14:05;18.20;92.00
11214;DHT22;5664;48.606;13.456;2023-02-02T00:16:33;18.20;92.00
11214;DHT22;5664;48.606;13.456;2023-02-02T00:19:00;18.00;91.90
11214;DHT22;5664;48.606;13.456;2023-02-02T00:21:26;18.50;92.00
11214;DHT22;5664;48.606;13.456;2023-02-02T00:23:52;17.80;91.90
11214;DHT22;5664;48.606;13.456;2023-02-02T00:26:17;17.80;92.00
11214;DHT22;5664;48.606;13.456;2023-02-02T00:28:43;17.90;91.90
11214;DHT22;5664;48.606;13.456;2023-02-02T00:31:08;17.80;94.10
11214;DHT22;5664;48.606;13.456;2023-02-02T00:33:34;17.90;92.00
11214;DHT22;5664;48.606;13.456;2023-02-02T00:35:59;18.10;92.00
11214;DHT22;5664;48.606;13.456;2023-02-02T00:38:25;17.80;92.00
11214;DHT22;5664;48.606;13.456;2023-02-02T00:40:50;18.10;92.10
11214;DHT22;5664;48.606;13.456;2023-02-02T00:43:16;17.80;92.00
11214;DHT22;5664;48.606;13.456;2023-02-02T00:45:41;18.10;92.00
11214;DHT22;5664;48.606;13.456;2023-02-02T00:48:07;18.20;92.00
11214;DHT22;5664;48.606;13.456;2023-02-02T00:50:35;17.80;91.90
11214;DHT22;5664;48.606;13.456;2023-02-02T00:53:00;17.50;91.50
11214;DHT22;5664;48.606;13.456;2023-02-02T00:55:26;17.90;92.00
11214;DHT22;5664;48.606;13.456;2023-02-02T00:57:51;17.80;92.00
11214;DHT22;5664;48.606;13.456;2023-02-02T01:00:18;18.10;92.00
11214;DHT22;5664;48.606;13.456;2023-02-02T01:02:45;17.60;92.30
11214;DHT22;5664;48.606;13.456;2023-02-02T01:05:11;17.70;92.00
11214;DHT22;5664;48.606;13.456;2023-02-02T01:07:37;17.60;92.00
11214;DHT22;5664;48.606;13.456;2023-02-02T01:10:03;17.70;92.00
11214;DHT22;5664;48.606;13.456;2023-02-02T01:12:28;17.60;91.90
11214;DHT22;5664;48.606;13.456;2023-02-02T01:14:54;17.70;91.90
11214;DHT22;5664;48.606;13.456;2023-02-02T01:17:19;17.90;92.00
11214;DHT22;5664;48.606;13.456;2023-02-02T01:19:45;18.10;92.10
11214;DHT22;5664;48.606;13.456;2023-02-02T01:22:10;17.70;92.00
11214;DHT22;5664;48.606;13.456;2023-02-02T01:24:36;17.70;91.90
11214;DHT22;5664;48.606;13.456;2023-02-02T01:27:01;17.60;92.00
11214;DHT22;5664;48.606;13.456;2023-02-02T01:29:27;17.60;92.00
11214;DHT22;5664;48.606;13.456;2023-02-02T01:31:52;17.70;92.00
11214;DHT22;5664;48.606;13.456;2023-02-02T01:34:18;17.70;91.90
11214;DHT22;5664;48.606;13.456;2023-02-02T01:36:44;18.00;92.10
11214;DHT22;5664;48.606;13.456;2023-02-02T01:39:09;18.10;92.20
11214;DHT22;5664;48.606;13.456;2023-02-02T01:41:35;17.90;92.00
11214;DHT22;5664;48.606;13.456;2023-02-02T01:44:04;17.70;92.00
11214;DHT22;5664;48.606;13.456;2023-02-02T01:46:33;17.50;91.50
11214;DHT22;5664;48.606;13.456;2023-02-02T01:49:07;17.50;91.50
11214;DHT22;5664;48.606;13.456;2023-02-02T01:51:55;17.50;91.50
11214;DHT22;5664;48.606;13.456;2023-02-02T01:54:23;18.10;92.00
11214;DHT22;5664;48.606;13.456;2023-02-02T01:56:50;17.60;91.90
11214;DHT22;5664;48.606;13.456;2023-02-02T01:59:17;17.90;92.00
11214;DHT22;5664;48.606;13.456;2023-02-02T02:01:43;17.70;92.00
11214;DHT22;5664;48.606;13.456;2023-02-02T02:04:09;17.90;92.00
11214;DHT22;5664;48.606;13.456;2023-02-02T02:06:35;17.90;92.10
11214;DHT22;5664;48.606;13.456;2023-02-02T02:09:02;17.80;92.00
11214;DHT22;5664;48.606;13.456;2023-02-02T02:11:28;17.50;91.90
11214;DHT22;5664;48.606;13.456;2023-02-02T02:13:55;17.60;91.90
11214;DHT22;5664;48.606;13.456;2023-02-02T02:27:12;17.50;91.50
11214;DHT22;5664;48.606;13.456;2023-02-02T02:35:17;17.50;91.50
11214;DHT22;5664;48.606;13.456;2023-02-02T02:37:56;17.50;91.50
11214;DHT22;5664;48.606;13.456;2023-02-02T02:42:57;17.50;92.00
11214;DHT22;5664;48.606;13.456;2023-02-02T02:45:23;17.50;91.60
11214;DHT22;5664;48.606;13.456;2023-02-02T02:47:50;17.50;92.00
11214;DHT22;5664;48.606;13.456;2023-02-02T02:50:16;18.00;92.10
11214;DHT22;5664;48.606;13.456;2023-02-02T02:52:41;17.70;92.10
11214;DHT22;5664;48.606;13.456;2023-02-02T02:55:07;17.60;92.20
11214;DHT22;5664;48.606;13.456;2023-02-02T03:03:13;17.50;91.60
11214;DHT22;5664;48.606;13.456;2023-02-02T03:05:47;17.50;91.50
11214;DHT22;5664;48.606;13.456;2023-02-02T03:10:44;17.50;91.50
11214;DHT22;5664;48.606;13.456;2023-02-02T03:13:10;17.90;92.00
11214;DHT22;5664;48.606;13.456;2023-02-02T03:15:39;17.60;92.00
11214;DHT22;5664;48.606;13.456;2023-02-02T03:18:04;17.60;92.00
11214;DHT22;5664;48.606;13.456;2023-02-02T03:20:30;17.90;92.20
11214;DHT22;5664;48.606;13.456;2023-02-02T03:22:55;17.60;92.10
11214;DHT22;5664;48.606;13.456;2023-02-02T03:25:21;18.00;92.20
11214;DHT22;5664;48.606;13.456;2023-02-02T03:27:48;17.60;92.10
11214;DHT22;5664;48.606;13.456;2023-02-02T03:30:13;17.60;92.10
11214;DHT22;5664;48.606;13.456;2023-02-02T03:32:39;17.50;92.00
11214;DHT22;5664;48.606;13.456;2023-02-02T03:35:05;17.60;92.20
11214;DHT22;5664;48.606;13.456;2023-02-02T03:37:30;17.50;92.00
11214;DHT22;5664;48.606;13.456;2023-02-02T03:39:56;18.00;92.20
11214;DHT22;5664;48.606;13.456;2023-02-02T03:42:21;17.70;92.10
11214;DHT22;5664;48.606;13.456;2023-02-02T03:44:46;17.50;92.10
11214;DHT22;5664;48.606;13.456;2023-02-02T03:49:38;17.40;91.60
11214;DHT22;5664;48.606;13.456;2023-02-02T03:52:03;17.40;92.10
11214;DHT22;5664;48.606;13.456;2023-02-02T03:54:29;17.50;92.00
11214;DHT22;5664;48.606;13.456;2023-02-02T03:56:54;18.00;92.20
11214;DHT22;5664;48.606;13.456;2023-02-02T03:59:20;18.00;92.20
11214;DHT22;5664;48.606;13.456;2023-02-02T04:01:45;18.00;92.20
11214;DHT22;5664;48.606;13.456;2023-02-02T04:04:11;17.90;92.20
11214;DHT22;5664;48.606;13.456;2023-02-02T04:06:36;17.70;92.10
11214;DHT22;5664;48.606;13.456;2023-02-02T04:09:02;17.80;92.10
11214;DHT22;5664;48.606;13.456;2023-02-02T04:11:27;17.40;92.10
11214;DHT22;5664;48.606;13.456;2023-02-02T04:13:53;18.10;92.30
11214;DHT22;5664;48.606;13.456;2023-02-02T04:16:18;18.30;92.30
11214;DHT22;5664;48.606;13.456;2023-02-02T04:18:44;18.00;92.20
11214;DHT22;5664;48.606;13.456;2023-02-02T04:21:09;17.60;92.10
11214;DHT22;5664;48.606;13.456;2023-02-02T04:23:35;18.20;92.30
11214;DHT22;5664;48.606;13.456;2023-02-02T04:26:01;17.70;92.00
11214;DHT22;5664;48.606;13.456;2023-02-02T04:28:27;17.60;92.10
11214;DHT22;5664;48.606;13.456;2023-02-02T04:30:53;17.90;92.20
11214;DHT22;5664;48.606;13.456;2023-02-02T04:33:19;17.60;92.00
11214;DHT22;5664;48.606;13.456;2023-02-02T04:35:45;18.00;92.10
11214;DHT22;5664;48.606;13.456;2023-02-02T04:38:10;17.60;92.10
11214;DHT22;5664;48.606;13.456;2023-02-02T04:40:39;17.90;92.10
11214;DHT22;5664;48.606;13.456;2023-02-02T04:43:05;17.50;91.50
11214;DHT22;5664;48.606;13.456;2023-02-02T04:45:30;18.00;92.10
11214;DHT22;5664;48.606;13.456;2023-02-02T04:47:56;17.60;91.90
11214;DHT22;5664;48.606;13.456;2023-02-02T04:50:21;18.00;92.10
11214;DHT22;5664;48.606;13.456;2023-02-02T04:52:47;17.60;92.00
11214;DHT22;5664;48.606;13.456;2023-02-02T04:55:12;17.60;91.90
11214;DHT22;5664;48.606;13.456;2023-02-02T04:57:38;18.00;92.10
11214;DHT22;5664;48.606;13.456;2023-02-02T05:00:04;18.00;92.10
11214;DHT22;5664;48.606;13.456;2023-02-02T05:02:30;17.40;91.80
11214;DHT22;5664;48.606;13.456;2023-02-02T05:04:55;17.40;91.90
11214;DHT22;5664;48.606;13.456;2023-02-02T05:07:21;17.60;92.00
11214;DHT22;5664;48.606;13.456;2023-02-02T05:09:46;17.60;92.00
11214;DHT22;5664;48.606;13.456;2023-02-02T05:14:37;17.40;91.60
11214;DHT22;5664;48.606;13.456;2023-02-02T05:17:03;17.60;92.10
11214;DHT22;5664;48.606;13.456;2023-02-02T05:19:28;17.70;92.20
11214;DHT22;5664;48.606;13.456;2023-02-02T05:21:54;17.60;92.20
11214;DHT22;5664;48.606;13.456;2023-02-02T05:24:20;17.60;92.20
11214;DHT22;5664;48.606;13.456;2023-02-02T05:26:45;17.80;92.40
11214;DHT22;5664;48.606;13.456;2023-02-02T05:29:10;18.30;92.50
11214;DHT22;5664;48.606;13.456;2023-02-02T05:31:36;17.90;92.50
11214;DHT22;5664;48.606;13.456;2023-02-02T05:34:01;17.60;92.40
11214;DHT22;5664;48.606;13.456;2023-02-02T05:36:27;17.60;92.30
11214;DHT22;5664;48.606;13.456;2023-02-02T05:38:52;17.60;92.40
11214;DHT22;5664;48.606;13.456;2023-02-02T05:41:18;17.60;92.30
11214;DHT22;5664;48.606;13.456;2023-02-02T05:43:44;17.70;92.40
11214;DHT22;5664;48.606;13.456;2023-02-02T05:46:10;17.90;92.30
11214;DHT22;5664;48.606;13.456;2023-02-02T05:48:35;18.00;92.50
11214;DHT22;5664;48.606;13.456;2023-02-02T05:51:05;17.90;92.50
11214;DHT22;5664;48.606;13.456;2023-02-02T05:53:34;17.40;91.90
11214;DHT22;5664;48.606;13.456;2023-02-02T05:55:59;17.40;92.30
11214;DHT22;5664;48.606;13.456;2023-02-02T05:58:25;17.60;92.30
11214;DHT22;5664;48.606;13.456;2023-02-02T06:00:50;17.90;92.40
11214;DHT22;5664;48.606;13.456;2023-02-02T06:03:16;17.90;92.30
11214;DHT22;5664;48.606;13.456;2023-02-02T06:05:41;17.60;92.20
11214;DHT22;5664;48.606;13.456;2023-02-02T06:08:06;17.30;91.80
11214;DHT22;5664;48.606;13.456;2023-02-02T06:10:32;17.80;92.40
11214;DHT22;5664;48.606;13.456;2023-02-02T06:12:57;17.60;92.30
11214;DHT22;5664;48.606;13.456;2023-02-02T06:15:23;17.50;92.20
11214;DHT22;5664;48.606;13.456;2023-02-02T06:17:49;17.50;92.20
11214;DHT22;5664;48.606;13.456;2023-02-02T06:20:14;17.70;92.30
11214;DHT22;5664;48.606;13.456;2023-02-02T06:22:40;17.40;92.20
11214;DHT22;5664;48.606;13.456;2023-02-02T06:25:07;17.90;92.30
11214;DHT22;5664;48.606;13.456;2023-02-02T06:27:32;17.30;62.00
11214;DHT22;5664;48.606;13.456;2023-02-02T06:29:58;17.30;62.00
11214;DHT22;5664;48.606;13.456;2023-02-02T06:32:23;17.70;62.20
11214;DHT22;5664;48.606;13.456;2023-02-02T06:34:49;17.80;62.30
11214;DHT22;5664;48.606;13.456;2023-02-02T06:37:14;17.50;62.00
11214;DHT22;5664;48.606;13.456;2023-02-02T06:39:40;17.40;61.80
11214;DHT22;5664;48.606;13.456;2023-02-02T06:42:05;18.00;62.10
11214;DHT22;5664;48.606;13.456;2023-02-02T06:44:31;17.50;61.70
11214;DHT22;5664;48.606;13.456;2023-02-02T06:46:56;17.70;61.70
11214;DHT22;5664;48.606;13.456;2023-02-02T06:49:22;17.60;61.40
11214;DHT22;5664;48.606;13.456;2023-02-02T06:51:47;17.60;61.40
11214;DHT22;5664;48.606;13.456;2023-02-02T06:54:13;17.70;61.30
11214;DHT22;5664;48.606;13.456;2023-02-02T06:56:38;17.60;61.20
11214;DHT22;5664;48.606;13.456;2023-02-02T06:59:04;17.70;61.10
11214;DHT22;5664;48.606;13.456;2023-02-02T07:01:30;17.70;61.00
11214;DHT22;5664;48.606;13.456;2023-02-02T07:03:56;17.90;61.10
11214;DHT22;5664;48.606;13.456;2023-02-02T07:06:23;18.20;61.30
11214;DHT22;5664;48.606;13.456;2023-02-02T07:08:49;17.80;60.90
11214;DHT22;5664;48.606;13.456;2023-02-02T07:11:15;18.20;61.10
11214;DHT22;5664;48.606;13.456;2023-02-02T07:13:41;17.70;60.70
11214;DHT22;5664;48.606;13.456;2023-02-02T07:16:06;18.00;64.90
11214;DHT22;5664;48.606;13.456;2023-02-02T07:18:33;17.90;60.70
11214;DHT22;5664;48.606;13.456;2023-02-02T07:21:01;18.10;60.90
11214;DHT22;5664;48.606;13.456;2023-02-02T07:23:27;17.90;60.60
11214;DHT22;5664;48.606;13.456;2023-02-02T07:25:59;17.90;60.60
11214;DHT22;5664;48.606;13.456;2023-02-02T07:28:25;18.00;60.50
11214;DHT22;5664;48.606;13.456;2023-02-02T07:30:51;18.40;60.80
11214;DHT22;5664;48.606;13.456;2023-02-02T07:33:16;18.10;60.60
11214;DHT22;5664;48.606;13.456;2023-02-02T07:35:42;18.00;61.30
11214;DHT22;5664;48.606;13.456;2023-02-02T07:38:07;18.10;60.50
11214;DHT22;5664;48.606;13.456;2023-02-02T07:40:33;18.10;60.40
11214;DHT22;5664;48.606;13.456;2023-02-02T07:42:58;18.50;60.60
11214;DHT22;5664;48.606;13.456;2023-02-02T07:45:25;18.10;60.30
11214;DHT22;5664;48.606;13.456;2023-02-02T07:47:54;18.20;60.30
11214;DHT22;5664;48.606;13.456;2023-02-02T07:50:19;18.30;60.30
11214;DHT22;5664;48.606;13.456;2023-02-02T07:52:45;18.10;60.20
11214;DHT22;5664;48.606;13.456;2023-02-02T07:55:10;18.20;60.20
11214;DHT22;5664;48.606;13.456;2023-02-02T07:57:36;18.20;62.30
11214;DHT22;5664;48.606;13.456;2023-02-02T08:00:02;18.20;60.20
11214;DHT22;5664;48.606;13.456;2023-02-02T08:02:27;18.20;60.10
11214;DHT22;5664;48.606;13.456;2023-02-02T08:04:53;18.30;60.20
11214;DHT22;5664;48.606;13.456;2023-02-02T08:07:18;18.40;60.30
11214;DHT22;5664;48.606;13.456;2023-02-02T08:09:45;18.40;60.30
11214;DHT22;5664;48.606;13.456;2023-02-02T08:12:12;18.30;60.20
11214;DHT22;5664;48.606;13.456;2023-02-02T08:14:37;18.20;60.10
11214;DHT22;5664;48.606;13.456;2023-02-02T08:17:03;18.60;60.40
11214;DHT22;5664;48.606;13.456;2023-02-02T08:19:28;18.20;60.10
11214;DHT22;5664;48.606;13.456;2023-02-02T08:21:54;18.60;60.40
11214;DHT22;5664;48.606;13.456;2023-02-02T08:24:19;18.20;60.10
11214;DHT22;5664;48.606;13.456;2023-02-02T08:26:45;18.20;60.20
11214;DHT22;5664;48.606;13.456;2023-02-02T08:29:10;18.20;60.10
11214;DHT22;5664;48.606;13.456;2023-02-02T08:31:37;18.30;63.00
11214;DHT22;5664;48.606;13.456;2023-02-02T08:34:03;18.50;60.20
11214;DHT22;5664;48.606;13.456;2023-02-02T08:36:29;18.40;60.20
11214;DHT22;5664;48.606;13.456;2023-02-02T08:38:58;18.20;60.00
11214;DHT22;5664;48.606;13.456;2023-02-02T08:41:24;18.40;60.10
11214;DHT22;5664;48.606;13.456;2023-02-02T08:43:49;18.20;60.00
11214;DHT22;5664;48.606;13.456;2023-02-02T08:46:16;18.30;60.00
11214;DHT22;5664;48.606;13.456;2023-02-02T08:48:42;18.30;60.00
11214;DHT22;5664;48.606;13.456;2023-02-02T08:51:12;18.30;59.90
11214;DHT22;5664;48.606;13.456;2023-02-02T08:53:39;18.30;59.90
11214;DHT22;5664;48.606;13.456;2023-02-02T08:56:06;18.20;59.80
11214;DHT22;5664;48.606;13.456;2023-02-02T08:58:33;18.30;59.90
11214;DHT22;5664;48.606;13.456;2023-02-02T09:01:06;18.30;59.90
11214;DHT22;5664;48.606;13.456;2023-02-02T09:03:32;18.30;59.90
11214;DHT22;5664;48.606;13.456;2023-02-02T09:05:57;18.30;59.90
11214;DHT22;5664;48.606;13.456;2023-02-02T09:08:27;18.30;59.80
11214;DHT22;5664;48.606;13.456;2023-02-02T09:10:52;18.30;59.80
11214;DHT22;5664;48.606;13.456;2023-02-02T09:13:18;18.30;59.80
11214;DHT22;5664;48.606;13.456;2023-02-02T09:15:43;18.40;59.90
11214;DHT22;5664;48.606;13.456;2023-02-02T09:18:09;18.70;60.10
11214;DHT22;5664;48.606;13.456;2023-02-02T09:20:34;18.50;59.90
11214;DHT22;5664;48.606;13.456;2023-02-02T09:23:00;18.30;59.80
11214;DHT22;5664;48.606;13.456;2023-02-02T09:25:25;18.30;59.80
11214;DHT22;5664;48.606;13.456;2023-02-02T09:27:52;18.30;59.80
11214;DHT22;5664;48.606;13.456;2023-02-02T09:30:18;18.30;59.80
11214;DHT22;5664;48.606;13.456;2023-02-02T09:32:43;18.30;59.80
11214;DHT22;5664;48.606;13.456;2023-02-02T09:35:09;18.30;59.80
11214;DHT22;5664;48.606;13.456;2023-02-02T09:37:35;18.30;59.80
11214;DHT22;5664;48.606;13.456;2023-02-02T09:40:00;18.30;59.80
11214;DHT22;5664;48.606;13.456;2023-02-02T09:47:52;18.40;59.80
11214;DHT22;5664;48.606;13.456;2023-02-02T09:52:58;18.30;59.70
11214;DHT22;5664;48.606;13.456;2023-02-02T09:55:32;18.40;59.80
11214;DHT22;5664;48.606;13.456;2023-02-02T10:00:36;18.30;59.70
11214;DHT22;5664;48.606;13.456;2023-02-02T10:03:06;18.70;59.90
11214;DHT22;5664;48.606;13.456;2023-02-02T10:05:41;18.30;59.70
11214;DHT22;5664;48.606;13.456;2023-02-02T10:08:09;18.30;59.70
11214;DHT22;5664;48.606;13.456;2023-02-02T10:10:38;18.40;59.80
11214;DHT22;5664;48.606;13.456;2023-02-02T10:13:04;18.30;59.70
11214;DHT22;5664;48.606;13.456;2023-02-02T10:21:05;18.40;59.70
11214;DHT22;5664;48.606;13.456;2023-02-02T10:26:16;18.40;59.80
11214;DHT22;5664;48.606;13.456;2023-02-02T10:31:13;18.30;59.70
11214;DHT22;5664;48.606;13.456;2023-02-02T10:33:41;18.30;59.70
11214;DHT22;5664;48.606;13.456;2023-02-02T10:38:56;18.30;59.70
11214;DHT22;5664;48.606;13.456;2023-02-02T10:41:35;18.30;59.70
11214;DHT22;5664;48.606;13.456;2023-02-02T10:46:44;18.30;59.70
11214;DHT22;5664;48.606;13.456;2023-02-02T10:51:37;18.50;59.80
11214;DHT22;5664;48.606;13.456;2023-02-02T10:54:04;18.30;59.70
11214;DHT22;5664;48.606;13.456;2023-02-02T10:56:37;18.30;59.70
11214;DHT22;5664;48.606;13.456;2023-02-02T11:01:29;18.60;59.80
11214;DHT22;5664;48.606;13.456;2023-02-02T11:03:55;18.40;59.80
11214;DHT22;5664;48.606;13.456;2023-02-02T11:06:39;18.40;59.70
11214;DHT22;5664;48.606;13.456;2023-02-02T11:09:14;18.30;59.70
11214;DHT22;5664;48.606;13.456;2023-02-02T11:11:42;18.30;59.60
11214;DHT22;5664;48.606;13.456;2023-02-02T11:14:16;18.30;63.10
11214;DHT22;5664;48.606;13.456;2023-02-02T11:16:43;18.40;59.70
11214;DHT22;5664;48.606;13.456;2023-02-02T11:21:41;18.40;61.00
11214;DHT22;5664;48.606;13.456;2023-02-02T11:24:28;18.80;59.90
11214;DHT22;5664;48.606;13.456;2023-02-02T11:32:19;18.40;59.70
11214;DHT22;5664;48.606;13.456;2023-02-02T11:34:45;18.30;59.60
11214;DHT22;5664;48.606;13.456;2023-02-02T11:37:11;18.30;59.70
11214;DHT22;5664;48.606;13.456;2023-02-02T11:39:38;18.30;59.60
11214;DHT22;5664;48.606;13.456;2023-02-02T11:42:05;18.40;59.70
11214;DHT22;5664;48.606;13.456;2023-02-02T11:44:31;18.30;59.70
11214;DHT22;5664;48.606;13.456;2023-02-02T11:46:59;18.30;59.10
11214;DHT22;5664;48.606;13.456;2023-02-02T11:49:25;18.40;58.80
11214;DHT22;5664;48.606;13.456;2023-02-02T11:52:33;18.60;58.90
11214;DHT22;5664;48.606;13.456;2023-02-02T11:54:40;18.50;58.70
11214;DHT22;5664;48.606;13.456;2023-02-02T11:57:10;18.90;58.90
11214;DHT22;5664;48.606;13.456;2023-02-02T11:59:41;18.50;58.70
11214;DHT22;5664;48.606;13.456;2023-02-02T12:04:47;18.50;58.80
11214;DHT22;5664;48.606;13.456;2023-02-02T12:07:17;18.50;58.90
11214;DHT22;5664;48.606;13.456;2023-02-02T12:09:44;18.50;59.00
11214;DHT22;5664;48.606;13.456;2023-02-02T12:12:17;18.50;59.10
11214;DHT22;5664;48.606;13.456;2023-02-02T12:17:38;18.50;59.20
11214;DHT22;5664;48.606;13.456;2023-02-02T12:25:15;18.40;59.40
11214;DHT22;5664;48.606;13.456;2023-02-02T12:28:03;18.40;59.40
11214;DHT22;5664;48.606;13.456;2023-02-02T12:30:52;18.40;59.40
11214;DHT22;5664;48.606;13.456;2023-02-02T12:33:32;18.40;59.50
11214;DHT22;5664;48.606;13.456;2023-02-02T12:44:12;18.40;59.60
11214;DHT22;5664;48.606;13.456;2023-02-02T12:46:58;18.30;59.60
11214;DHT22;5664;48.606;13.456;2023-02-02T13:12:41;18.30;59.90
11214;DHT22;5664;48.606;13.456;2023-02-02T13:15:08;18.20;59.90
11214;DHT22;5664;48.606;13.456;2023-02-02T13:17:41;18.20;60.00
11214;DHT22;5664;48.606;13.456;2023-02-02T13:20:13;18.20;60.00
11214;DHT22;5664;48.606;13.456;2023-02-02T13:22:40;18.20;60.00
11214;DHT22;5664;48.606;13.456;2023-02-02T13:25:08;18.30;60.10
11214;DHT22;5664;48.606;13.456;2023-02-02T13:27:40;18.20;60.10
11214;DHT22;5664;48.606;13.456;2023-02-02T13:32:53;18.20;60.20
11214;DHT22;5664;48.606;13.456;2023-02-02T13:35:30;18.20;60.20
11214;DHT22;5664;48.606;13.456;2023-02-02T13:38:16;18.20;60.30
11214;DHT22;5664;48.606;13.456;2023-02-02T13:40:43;18.20;60.50
11214;DHT22;5664;48.606;13.456;2023-02-02T13:46:01;18.20;64.10
11214;DHT22;5664;48.606;13.456;2023-02-02T13:59:27;18.20;61.00
11214;DHT22;5664;48.606;13.456;2023-02-02T14:01:33;18.20;61.10
11214;DHT22;5664;48.606;13.456;2023-02-02T14:03:59;18.10;61.10
11214;DHT22;5664;48.606;13.456;2023-02-02T14:06:26;18.20;62.00
11214;DHT22;5664;48.606;13.456;2023-02-02T14:08:59;18.10;61.20
11214;DHT22;5664;48.606;13.456;2023-02-02T14:11:38;18.10;61.20
11214;DHT22;5664;48.606;13.456;2023-02-02T14:14:14;18.10;61.30
11214;DHT22;5664;48.606;13.456;2023-02-02T14:26:59;18.10;61.70
11214;DHT22;5664;48.606;13.456;2023-02-02T14:31:54;18.10;61.80
11214;DHT22;5664;48.606;13.456;2023-02-02T14:34:33;18.10;61.90
11214;DHT22;5664;48.606;13.456;2023-02-02T14:37:08;18.10;62.00
11214;DHT22;5664;48.606;13.456;2023-02-02T14:39:55;18.10;62.00
11214;DHT22;5664;48.606;13.456;2023-02-02T14:47:48;18.40;62.20
11214;DHT22;5664;48.606;13.456;2023-02-02T14:50:15;18.10;62.00
11214;DHT22;5664;48.606;13.456;2023-02-02T14:52:42;18.10;62.10
11214;DHT22;5664;48.606;13.456;2023-02-02T14:55:17;18.20;62.30
11214;DHT22;5664;48.606;13.456;2023-02-02T14:57:43;18.10;61.80
11214;DHT22;5664;48.606;13.456;2023-02-02T15:00:20;18.10;61.80
11214;DHT22;5664;48.606;13.456;2023-02-02T15:02:47;18.10;62.00
11214;DHT22;5664;48.606;13.456;2023-02-02T15:13:09;18.10;62.20
11214;DHT22;5664;48.606;13.456;2023-02-02T15:15:36;18.00;66.30
11214;DHT22;5664;48.606;13.456;2023-02-02T15:18:05;18.30;62.30
11214;DHT22;5664;48.606;13.456;2023-02-02T15:20:47;18.10;62.20
11214;DHT22;5664;48.606;13.456;2023-02-02T15:23:32;18.10;62.20
11214;DHT22;5664;48.606;13.456;2023-02-02T15:31:50;18.00;62.20
11214;DHT22;5664;48.606;13.456;2023-02-02T15:33:51;18.10;62.30
11214;DHT22;5664;48.606;13.456;2023-02-02T15:36:30;17.10;61.40
11214;DHT22;5664;48.606;13.456;2023-02-02T15:39:39;18.00;62.30
11214;DHT22;5664;48.606;13.456;2023-02-02T15:41:45;18.00;62.30
11214;DHT22;5664;48.606;13.456;2023-02-02T15:44:17;18.10;62.40
11214;DHT22;5664;48.606;13.456;2023-02-02T15:46:43;18.00;62.30
11214;DHT22;5664;48.606;13.456;2023-02-02T15:49:13;18.00;62.40
11214;DHT22;5664;48.606;13.456;2023-02-02T15:51:41;18.00;62.40
11214;DHT22;5664;48.606;13.456;2023-02-02T15:54:19;18.00;66.50
11214;DHT22;5664;48.606;13.456;2023-02-02T15:56:46;18.40;62.80
11214;DHT22;5664;48.606;13.456;2023-02-02T15:59:18;18.20;62.70
11214;DHT22;5664;48.606;13.456;2023-02-02T16:01:47;18.00;62.50
11214;DHT22;5664;48.606;13.456;2023-02-02T16:04:15;18.30;62.70
11214;DHT22;5664;48.606;13.456;2023-02-02T16:06:42;17.90;62.40
11214;DHT22;5664;48.606;13.456;2023-02-02T16:09:09;17.90;62.50
11214;DHT22;5664;48.606;13.456;2023-02-02T16:11:41;18.30;62.80
11214;DHT22;5664;48.606;13.456;2023-02-02T16:14:12;17.90;62.50
11214;DHT22;5664;48.606;13.456;2023-02-02T16:16:38;18.00;62.60
11214;DHT22;5664;48.606;13.456;2023-02-02T16:21:29;18.10;62.90
11214;DHT22;5664;48.606;13.456;2023-02-02T16:23:56;18.20;63.10
11214;DHT22;5664;48.606;13.456;2023-02-02T16:26:22;18.00;63.10
11214;DHT22;5664;48.606;13.456;2023-02-02T16:28:49;18.10;63.20
11214;DHT22;5664;48.606;13.456;2023-02-02T16:31:15;18.20;63.30
11214;DHT22;5664;48.606;13.456;2023-02-02T16:33:41;18.20;63.20
11214;DHT22;5664;48.606;13.456;2023-02-02T16:36:17;18.20;63.20
11214;DHT22;5664;48.606;13.456;2023-02-02T16:38:43;18.20;63.20
11214;DHT22;5664;48.606;13.456;2023-02-02T16:41:09;18.30;63.20
11214;DHT22;5664;48.606;13.456;2023-02-02T16:43:36;18.30;63.30
11214;DHT22;5664;48.606;13.456;2023-02-02T16:46:03;18.30;63.20
11214;DHT22;5664;48.606;13.456;2023-02-02T16:56:28;18.40;63.20
11214;DHT22;5664;48.606;13.456;2023-02-02T16:58:54;18.40;63.10
11214;DHT22;5664;48.606;13.456;2023-02-02T17:01:29;18.40;63.10
11214;DHT22;5664;48.606;13.456;2023-02-02T17:03:56;18.50;63.20
11214;DHT22;5664;48.606;13.456;2023-02-02T17:06:29;18.50;63.30
11214;DHT22;5664;48.606;13.456;2023-02-02T17:09:12;18.40;63.30
11214;DHT22;5664;48.606;13.456;2023-02-02T17:11:37;18.40;63.30
11214;DHT22;5664;48.606;13.456;2023-02-02T17:14:17;18.50;63.40
11214;DHT22;5664;48.606;13.456;2023-02-02T17:16:42;18.40;63.30
11214;DHT22;5664;48.606;13.456;2023-02-02T17:19:08;18.40;63.40
11214;DHT22;5664;48.606;13.456;2023-02-02T17:21:33;18.40;63.40
11214;DHT22;5664;48.606;13.456;2023-02-02T17:24:00;18.40;63.50
11214;DHT22;5664;48.606;13.456;2023-02-02T17:26:25;18.40;63.50
11214;DHT22;5664;48.606;13.456;2023-02-02T17:28:53;18.70;63.80
11214;DHT22;5664;48.606;13.456;2023-02-02T17:31:19;18.40;63.80
11214;DHT22;5664;48.606;13.456;2023-02-02T17:33:45;18.40;63.80
11214;DHT22;5664;48.606;13.456;2023-02-02T17:36:11;18.40;64.00
11214;DHT22;5664;48.606;13.456;2023-02-02T17:38:37;18.40;64.20
11214;DHT22;5664;48.606;13.456;2023-02-02T17:41:03;18.60;64.40
11214;DHT22;5664;48.606;13.456;2023-02-02T17:43:29;18.40;64.40
11214;DHT22;5664;48.606;13.456;2023-02-02T17:45:55;18.60;64.70
11214;DHT22;5664;48.606;13.456;2023-02-02T17:48:21;18.40;64.60
11214;DHT22;5664;48.606;13.456;2023-02-02T17:50:46;18.40;64.70
11214;DHT22;5664;48.606;13.456;2023-02-02T17:53:13;18.60;65.00
11214;DHT22;5664;48.606;13.456;2023-02-02T17:55:39;18.80;65.10
11214;DHT22;5664;48.606;13.456;2023-02-02T17:58:06;18.40;65.00
11214;DHT22;5664;48.606;13.456;2023-02-02T18:00:32;18.40;65.10
11214;DHT22;5664;48.606;13.456;2023-02-02T18:05:43;18.40;65.20
11214;DHT22;5664;48.606;13.456;2023-02-02T18:08:11;18.40;68.00
11214;DHT22;5664;48.606;13.456;2023-02-02T18:10:36;18.50;65.30
11214;DHT22;5664;48.606;13.456;2023-02-02T18:13:02;18.50;65.20
11214;DHT22;5664;48.606;13.456;2023-02-02T18:15:28;18.50;65.40
11214;DHT22;5664;48.606;13.456;2023-02-02T18:17:54;18.80;61.50
11214;DHT22;5664;48.606;13.456;2023-02-02T18:20:19;18.50;59.20
11214;DHT22;5664;48.606;13.456;2023-02-02T18:22:45;18.50;61.30
11214;DHT22;5664;48.606;13.456;2023-02-02T18:25:13;18.40;62.70
11214;DHT22;5664;48.606;13.456;2023-02-02T18:27:39;18.50;63.40